Dati Storici

Data ora Umidita' aria (%) Temperatura aria (°C) Rad globale (W/m²) Gonioanemometro (°) Tacoanemometro (m/s) Pioggia (mm)
08-11-2012 14:10 60.5 % 13.077 397.745 99.816 1.128 0
08-11-2012 14:00 61.1 % 12.916 419.155 124.357 0.792 0
08-11-2012 13:50 61.5 % 12.281 367.054 115.6 1.229 0
08-11-2012 13:40 60.3 % 12.771 170.386 171.068 1.148 0
08-11-2012 13:30 56.1 % 13.526 480.132 176.566 0.769 0
08-11-2012 13:20 53.1 % 13.775 455.117 223.659 0.635 0
08-11-2012 13:10 53.4 % 14.081 450.512 287.819 1.551 0
08-11-2012 13:00 53.9 % 13.728 457.848 220.36 0.811 0
08-11-2012 12:50 54.5 % 14.173 464.057 357.785 0.637 0
08-11-2012 12:40 54.1 % 13.587 462.556 23.483 0.619 0
08-11-2012 12:30 55.2 % 13.881 462.87 333.799 0.199 0
08-11-2012 12:20 55.2 % 13.424 468.673 53.523 0.745 0
08-11-2012 12:10 56.1 % 13.261 445.022 111.854 0.376 0
08-11-2012 12:00 56.7 % 12.636 463.399 70.196 0.741 0
08-11-2012 11:50 57.3 % 12.711 452.926 79.97 0.715 0
08-11-2012 11:40 59.3 % 11.631 419.937 26.227 0.546 0
08-11-2012 11:30 60.9 % 10.886 378.046 87.054 0.713 0
08-11-2012 11:20 61.5 % 10.316 361.149 55.396 1.105 0
08-11-2012 11:10 63.3 % 10.134 363.843 331.708 0.263 0
08-11-2012 11:00 62.6 % 9.25 363.025 24.544 1.521 0

I dati sono presentati in modo automatico a scopo informativo. In seguito a verifica i dati possono subire modifiche o essere invalidati e non riportati negli archivi definitivi.